Time;durP1;ratioP1;P1;durP2;ratioP2;P2;SDS_P1;SDS_P2;PMS_P1;PMS_P2;Temp;Humidity;BMP_temperature;BMP_pressure;BME280_temperature;BME280_humidity;BME280_pressure;Samples;Min_cycle;Max_cycle;Signal;HPM_P1;HPM_P2
2022/10/05 00:01:32;;;;;;;6.63;4.63;;;9.00;99.90;;;;;;5039235;28;20036;-78
2022/10/05 00:04:18;;;;;;;5.47;3.47;;;9.00;99.90;;;;;;5035527;28;20045;-78
2022/10/05 00:06:49;;;;;;;3.90;3.50;;;9.00;99.90;;;;;;5041526;28;20389;-78
2022/10/05 00:09:19;;;;;;;5.25;3.83;;;8.90;99.90;;;;;;5059956;28;20017;-78
2022/10/05 00:11:46;;;;;;;4.97;4.07;;;8.90;99.90;;;;;;5060834;28;20053;-78
2022/10/05 00:14:18;;;;;;;4.40;3.25;;;8.90;99.90;;;;;;5047468;28;20061;-78
2022/10/05 00:16:44;;;;;;;3.72;3.30;;;8.80;99.90;;;;;;5021474;28;20053;-78
2022/10/05 00:19:34;;;;;;;3.40;3.10;;;8.80;99.90;;;;;;5039721;28;20037;-79
2022/10/05 00:22:21;;;;;;;3.38;2.92;;;8.80;99.90;;;;;;5039591;28;20029;-78
2022/10/05 00:24:50;;;;;;;4.47;3.67;;;8.80;99.90;;;;;;5052810;28;20101;-78
2022/10/05 00:27:19;;;;;;;4.55;3.55;;;8.80;99.90;;;;;;5058413;28;20100;-79
2022/10/05 00:29:49;;;;;;;6.13;4.15;;;8.70;99.90;;;;;;5059770;28;20040;-79
2022/10/05 00:32:15;;;;;;;5.18;4.18;;;8.70;99.90;;;;;;5059346;28;20029;-79
2022/10/05 00:34:41;;;;;;;4.80;3.90;;;8.70;99.90;;;;;;5050132;28;20333;-78
2022/10/05 00:37:07;;;;;;;8.02;4.65;;;8.60;99.90;;;;;;5047778;28;20099;-79
2022/10/05 00:39:34;;;;;;;3.83;3.25;;;8.60;99.90;;;;;;5045531;28;20061;-79
2022/10/05 00:42:09;;;;;;;4.25;3.53;;;8.60;99.90;;;;;;5021272;28;20021;-78
2022/10/05 00:44:45;;;;;;;4.53;3.63;;;8.60;99.90;;;;;;5028344;28;20141;-78
2022/10/05 00:47:34;;;;;;;5.60;3.47;;;8.60;99.90;;;;;;5040469;28;20132;-79
2022/10/05 00:50:38;;;;;;;4.68;3.45;;;8.60;99.90;;;;;;5058524;28;20063;-78
2022/10/05 00:53:32;;;;;;;4.95;3.15;;;8.50;99.90;;;;;;5056554;28;20082;-78
2022/10/05 00:56:19;;;;;;;3.25;2.95;;;8.50;99.90;;;;;;5042443;28;20060;-78
2022/10/05 00:59:01;;;;;;;4.70;3.13;;;8.50;99.90;;;;;;5038890;28;20037;-78
2022/10/05 01:01:56;;;;;;;;;;;8.50;99.90;;;;;;5022014;28;20064;-78
2022/10/05 01:04:35;;;;;;;5.15;3.03;;;8.50;99.90;;;;;;5022980;28;19955;-78
2022/10/05 01:07:22;;;;;;;3.15;2.85;;;8.50;99.90;;;;;;5046082;28;20075;-78
2022/10/05 01:10:21;;;;;;;4.20;3.03;;;8.50;99.90;;;;;;5039096;28;20044;-78
2022/10/05 01:13:18;;;;;;;3.85;3.10;;;8.50;99.90;;;;;;5024376;28;20041;-78
2022/10/05 01:16:06;;;;;;;5.00;3.00;;;8.50;99.90;;;;;;5045088;28;20085;-78
2022/10/05 01:18:49;;;;;;;4.75;3.55;;;8.50;99.90;;;;;;5057386;28;20060;-78
2022/10/05 01:21:24;;;;;;;5.90;3.13;;;8.40;99.90;;;;;;5057963;28;20033;-78
2022/10/05 01:24:26;;;;;;;3.17;2.88;;;8.40;99.90;;;;;;5057440;28;20025;-78
2022/10/05 01:27:10;;;;;;;3.58;2.50;;;8.40;99.90;;;;;;5056545;28;20029;-78
2022/10/05 01:29:53;;;;;;;3.72;2.78;;;8.40;99.90;;;;;;5057183;28;20040;-78
2022/10/05 01:32:36;;;;;;;5.07;2.45;;;8.30;99.90;;;;;;5057524;28;20358;-78
2022/10/05 01:35:07;;;;;;;;;;;8.30;99.90;;;;;;5040266;28;20021;-78
2022/10/05 01:38:09;;;;;;;2.88;2.35;;;8.30;99.90;;;;;;5022554;28;19912;-78
2022/10/05 01:40:47;;;;;;;3.13;2.40;;;8.30;99.90;;;;;;5019570;28;20033;-78
2022/10/05 01:43:23;;;;;;;2.60;2.22;;;8.30;99.90;;;;;;5037432;28;20060;-78
2022/10/05 01:46:44;;;;;;;2.25;2.03;;;8.30;99.90;;;;;;5037936;28;20163;-78
2022/10/05 01:49:25;;;;;;;4.43;2.10;;;8.30;99.90;;;;;;4988290;28;20048;-78
2022/10/05 01:52:14;;;;;;;2.17;1.58;;;8.30;99.90;;;;;;5037013;28;20036;-78
2022/10/05 01:55:06;;;;;;;1.98;1.77;;;8.30;99.90;;;;;;5039183;28;20025;-78
2022/10/05 01:57:44;;;;;;;2.28;1.95;;;8.30;99.90;;;;;;5020008;28;20029;-78
2022/10/05 02:00:16;;;;;;;1.80;1.70;;;8.30;99.90;;;;;;5037860;28;20056;-78
2022/10/05 02:02:56;;;;;;;;;;;8.30;99.90;;;;;;5045256;28;20072;-78
2022/10/05 02:05:31;;;;;;;1.85;1.48;;;8.30;99.90;;;;;;5056542;28;19988;-78
2022/10/05 02:08:07;;;;;;;2.63;1.48;;;8.30;99.90;;;;;;5058843;28;20021;-78
2022/10/05 02:10:40;;;;;;;1.73;1.52;;;8.20;99.90;;;;;;5056684;28;20021;-79
2022/10/05 02:13:20;;;;;;;1.55;1.45;;;8.20;99.90;;;;;;5038714;28;20031;-78
2022/10/05 02:15:52;;;;;;;1.63;1.38;;;8.20;99.90;;;;;;5056318;28;20029;-79
2022/10/05 02:18:22;;;;;;;;;;;8.20;99.90;;;;;;5046385;28;20079;-79
2022/10/05 02:20:50;;;;;;;1.55;1.40;;;8.20;99.90;;;;;;5062002;28;20308;-80
2022/10/05 02:23:24;;;;;;;1.35;1.25;;;8.20;99.90;;;;;;5065192;28;20136;-79
2022/10/05 02:25:51;;;;;;;3.15;1.40;;;8.20;99.90;;;;;;5064641;28;20039;-79
2022/10/05 02:28:35;;;;;;;3.05;1.75;;;8.20;99.90;;;;;;5046701;28;20036;-79
2022/10/05 02:31:32;;;;;;;1.98;1.60;;;8.20;99.90;;;;;;5065739;28;20028;-79
2022/10/05 02:34:21;;;;;;;1.70;1.40;;;8.20;99.90;;;;;;5037440;28;20029;-79
2022/10/05 02:36:53;;;;;;;2.00;1.50;;;8.20;99.90;;;;;;5059134;28;20031;-78
2022/10/05 02:39:38;;;;;;;1.38;1.27;;;8.20;99.90;;;;;;5029528;28;20056;-80
2022/10/05 02:42:07;;;;;;;1.42;1.33;;;8.20;99.90;;;;;;5039966;28;20045;-80
2022/10/05 02:44:57;;;;;;;1.50;1.40;;;8.20;99.90;;;;;;5022360;28;20021;-79
2022/10/05 02:48:00;;;;;;;1.55;1.20;;;8.20;99.90;;;;;;5023047;28;20034;-78
2022/10/05 02:50:32;;;;;;;1.67;1.23;;;8.20;99.90;;;;;;5019154;28;20036;-78
2022/10/05 02:53:32;;;;;;;1.98;1.30;;;8.20;99.90;;;;;;5040894;28;20056;-79
2022/10/05 02:56:25;;;;;;;1.80;1.52;;;8.10;99.90;;;;;;5038290;28;20100;-78
2022/10/05 02:59:16;;;;;;;1.90;1.48;;;8.10;99.90;;;;;;5041852;28;20032;-77
2022/10/05 03:02:12;;;;;;;3.28;1.85;;;8.00;99.90;;;;;;5042454;28;20025;-79
2022/10/05 03:05:07;;;;;;;2.03;1.35;;;8.10;99.90;;;;;;5068761;28;20033;-78
2022/10/05 03:07:45;;;;;;;1.35;1.20;;;8.10;99.90;;;;;;5065597;28;20041;-79
2022/10/05 03:10:13;;;;;;;1.50;1.40;;;8.10;99.90;;;;;;5055677;28;20033;-79
2022/10/05 03:12:48;;;;;;;1.65;1.55;;;8.10;99.90;;;;;;5048643;28;20033;-79
2022/10/05 03:15:32;;;;;;;2.65;1.40;;;8.10;99.90;;;;;;5038557;28;20025;-78
2022/10/05 03:18:26;;;;;;;1.65;1.23;;;8.10;99.90;;;;;;5037527;28;20073;-78
2022/10/05 03:21:04;;;;;;;1.50;1.40;;;8.10;99.90;;;;;;5037909;28;20116;-78
2022/10/05 03:24:20;;;;;;;1.63;1.35;;;8.10;99.90;;;;;;5024753;28;20021;-78
2022/10/05 03:26:55;;;;;;;1.60;1.50;;;8.10;99.90;;;;;;5025544;28;20132;-78
2022/10/05 03:29:48;;;;;;;1.33;1.23;;;8.10;99.90;;;;;;5055321;28;20017;-78
2022/10/05 03:32:38;;;;;;;1.05;1.05;;;8.00;99.90;;;;;;5055985;28;20442;-78
2022/10/05 03:35:44;;;;;;;1.73;1.60;;;8.00;99.90;;;;;;5056098;28;20044;-78
2022/10/05 03:38:16;;;;;;;1.17;0.90;;;8.00;99.90;;;;;;5035169;28;20044;-78
2022/10/05 03:41:01;;;;;;;1.20;1.10;;;8.00;99.90;;;;;;5056232;28;20494;-78
2022/10/05 03:44:00;;;;;;;1.10;1.10;;;8.00;99.90;;;;;;5022243;28;20057;-78
2022/10/05 03:47:10;;;;;;;1.50;1.40;;;8.00;99.90;;;;;;5018288;28;20406;-78
2022/10/05 03:50:13;;;;;;;1.40;1.30;;;8.00;99.90;;;;;;4988996;28;20060;-78
2022/10/05 03:52:43;;;;;;;2.65;1.30;;;7.90;99.90;;;;;;5036310;28;20079;-78
2022/10/05 03:56:04;;;;;;;1.45;1.08;;;7.90;99.90;;;;;;5024126;28;20026;-79
2022/10/05 03:58:41;;;;;;;1.00;1.00;;;7.90;99.90;;;;;;4934793;29;20083;-78
2022/10/05 04:01:14;;;;;;;1.17;1.08;;;7.90;99.90;;;;;;5043246;28;20482;-78
2022/10/05 04:03:43;;;;;;;1.23;1.13;;;7.90;99.90;;;;;;5055645;28;20388;-78
2022/10/05 04:06:21;;;;;;;1.52;1.27;;;7.90;99.90;;;;;;5055122;28;20039;-78
2022/10/05 04:08:46;;;;;;;1.33;1.23;;;7.90;99.90;;;;;;5055991;28;20017;-78
2022/10/05 04:11:20;;;;;;;1.15;1.05;;;7.90;99.90;;;;;;5036122;28;20053;-80
2022/10/05 04:13:51;;;;;;;0.93;0.93;;;7.90;99.90;;;;;;5033923;28;20026;-78
2022/10/05 04:16:22;;;;;;;1.07;1.00;;;7.90;99.90;;;;;;5033729;28;20133;-78
2022/10/05 04:19:12;;;;;;;1.15;0.90;;;7.90;99.90;;;;;;5035301;28;20025;-78
2022/10/05 04:21:55;;;;;;;1.20;1.08;;;8.00;99.90;;;;;;5040447;28;20033;-79
2022/10/05 04:24:29;;;;;;;0.90;0.90;;;8.00;99.90;;;;;;5055185;28;20039;-78
2022/10/05 04:26:59;;;;;;;1.20;1.10;;;8.00;99.90;;;;;;5054494;28;20033;-78
2022/10/05 04:29:49;;;;;;;1.30;1.20;;;7.90;99.90;;;;;;5056849;28;20108;-78
2022/10/05 04:32:14;;;;;;;0.85;0.85;;;7.90;99.90;;;;;;5037073;28;20029;-78
2022/10/05 04:35:08;;;;;;;0.80;0.80;;;7.90;99.90;;;;;;5036945;28;20136;-78
2022/10/05 04:37:40;;;;;;;2.85;1.02;;;7.90;99.90;;;;;;5035413;28;20033;-78
2022/10/05 04:40:14;;;;;;;1.38;1.02;;;7.80;99.90;;;;;;5017951;28;20060;-78
2022/10/05 04:43:02;;;;;;;1.80;1.00;;;7.80;99.90;;;;;;5039097;28;20673;-78
2022/10/05 04:45:55;;;;;;;2.08;1.20;;;7.80;99.90;;;;;;5038987;28;20030;-80
2022/10/05 04:48:40;;;;;;;1.23;1.13;;;7.80;99.90;;;;;;5041063;28;20033;-79
2022/10/05 04:51:26;;;;;;;2.13;1.20;;;7.80;99.90;;;;;;5021500;28;20044;-78
2022/10/05 04:54:07;;;;;;;0.85;0.85;;;7.80;99.90;;;;;;5038650;28;20133;-78
2022/10/05 04:56:39;;;;;;;0.82;0.82;;;7.80;99.90;;;;;;5038285;28;20032;-78
2022/10/05 04:59:41;;;;;;;1.00;1.00;;;7.80;99.90;;;;;;5026152;28;20032;-78
2022/10/05 05:02:32;;;;;;;1.70;1.00;;;7.80;99.90;;;;;;5020756;28;20275;-78
2022/10/05 05:05:30;;;;;;;0.82;0.82;;;7.80;99.90;;;;;;5057239;28;20031;-78
2022/10/05 05:08:34;;;;;;;0.93;0.93;;;7.80;99.90;;;;;;5058524;28;20031;-78
2022/10/05 05:11:21;;;;;;;2.97;1.10;;;7.80;99.90;;;;;;5058046;28;20027;-78
2022/10/05 05:14:02;;;;;;;2.10;1.40;;;7.80;99.90;;;;;;5058815;28;20104;-78
2022/10/05 05:16:30;;;;;;;3.33;1.35;;;7.90;99.90;;;;;;5058757;28;20236;-78
2022/10/05 05:19:24;;;;;;;3.15;1.25;;;7.80;99.90;;;;;;5059369;28;20090;-78
2022/10/05 05:22:08;;;;;;;1.38;1.13;;;7.80;99.90;;;;;;5059286;28;20021;-78
2022/10/05 05:24:55;;;;;;;1.40;1.30;;;7.90;99.90;;;;;;5060690;28;20573;-78
2022/10/05 05:27:40;;;;;;;2.33;1.10;;;7.90;99.90;;;;;;5071505;28;20032;-79
2022/10/05 05:30:11;;;;;;;1.75;1.25;;;7.90;99.90;;;;;;5075399;28;20025;-79
2022/10/05 05:32:59;;;;;;;1.13;1.00;;;8.00;99.90;;;;;;5076245;28;20055;-78
2022/10/05 05:35:42;;;;;;;1.00;0.90;;;8.00;99.90;;;;;;5075466;28;20313;-78
2022/10/05 05:38:23;;;;;;;1.10;1.00;;;8.00;99.90;;;;;;5059532;28;20036;-78
2022/10/05 05:41:11;;;;;;;1.88;1.30;;;8.10;99.90;;;;;;5060318;28;20104;-80
2022/10/05 05:44:00;;;;;;;2.00;1.40;;;8.10;99.90;;;;;;5045450;28;20093;-78
2022/10/05 05:46:37;;;;;;;2.25;1.30;;;8.10;99.90;;;;;;5037411;28;20107;-77
2022/10/05 05:49:18;;;;;;;1.08;1.05;;;8.20;99.90;;;;;;5038170;28;20025;-79
2022/10/05 05:52:14;;;;;;;1.58;1.20;;;8.20;99.90;;;;;;5024986;28;20520;-79
2022/10/05 05:54:50;;;;;;;1.15;1.10;;;8.20;99.90;;;;;;5045134;28;20043;-79
2022/10/05 05:57:29;;;;;;;1.23;1.10;;;8.30;99.90;;;;;;5044867;28;20163;-79
2022/10/05 06:00:06;;;;;;;1.38;1.27;;;8.30;99.90;;;;;;5067049;28;20105;-79
2022/10/05 06:02:45;;;;;;;2.35;1.40;;;8.30;99.90;;;;;;5056116;28;20032;-79
2022/10/05 06:05:44;;;;;;;1.95;1.73;;;8.40;99.90;;;;;;5051731;28;20029;-79
2022/10/05 06:08:33;;;;;;;3.28;1.60;;;8.40;99.90;;;;;;4993363;28;20029;-79
2022/10/05 06:11:22;;;;;;;3.30;1.42;;;8.50;99.90;;;;;;5042793;28;20025;-79
2022/10/05 06:13:48;;;;;;;2.25;1.40;;;8.50;99.90;;;;;;5047683;28;20063;-79
2022/10/05 06:16:39;;;;;;;5.57;1.75;;;8.60;99.90;;;;;;5043337;28;20033;-78
2022/10/05 06:19:17;;;;;;;3.50;1.45;;;8.70;99.90;;;;;;5058811;28;20369;-79
2022/10/05 06:22:21;;;;;;;3.78;1.55;;;8.70;99.90;;;;;;5062326;28;20032;-79
2022/10/05 06:25:08;;;;;;;3.35;1.33;;;8.80;99.90;;;;;;5035865;28;20171;-79
2022/10/05 06:27:36;;;;;;;1.83;1.38;;;8.90;99.90;;;;;;5060697;28;20021;-78
2022/10/05 06:30:10;;;;;;;1.50;1.27;;;8.90;99.90;;;;;;5044308;28;20084;-79
2022/10/05 06:32:41;;;;;;;4.45;1.30;;;9.00;99.90;;;;;;5063628;28;20036;-79
2022/10/05 06:35:33;;;;;;;2.40;1.10;;;9.00;99.90;;;;;;5051497;28;20116;-79
2022/10/05 06:38:37;;;;;;;4.65;2.05;;;9.10;99.90;;;;;;5042690;28;20033;-79
2022/10/05 06:41:12;;;;;;;1.40;1.30;;;9.20;99.90;;;;;;5033947;28;20482;-79
2022/10/05 06:43:58;;;;;;;1.23;1.13;;;9.30;99.90;;;;;;5024824;28;20105;-79
2022/10/05 06:46:33;;;;;;;1.60;1.30;;;9.50;99.90;;;;;;5044808;28;20060;-79
2022/10/05 06:49:28;;;;;;;1.02;0.88;;;9.50;99.90;;;;;;5063685;28;20490;-79
2022/10/05 06:52:12;;;;;;;6.88;1.40;;;9.60;99.90;;;;;;5064119;28;20036;-79
2022/10/05 06:54:44;;;;;;;1.60;0.88;;;9.70;99.90;;;;;;5062260;28;20060;-79
2022/10/05 06:57:41;;;;;;;1.50;1.27;;;9.80;99.90;;;;;;5062011;28;20112;-79
2022/10/05 07:00:19;;;;;;;1.92;1.40;;;10.00;99.90;;;;;;5038627;28;20024;-79
2022/10/05 07:02:54;;;;;;;3.97;1.70;;;10.10;99.90;;;;;;5062816;28;20075;-79
2022/10/05 07:05:37;;;;;;;2.13;1.40;;;10.20;99.90;;;;;;5045007;28;20055;-79
2022/10/05 07:08:12;;;;;;;2.50;1.30;;;10.40;99.90;;;;;;5056970;28;20044;-78
2022/10/05 07:11:03;;;;;;;3.53;1.48;;;10.50;99.90;;;;;;5057663;28;20053;-79
2022/10/05 07:13:47;;;;;;;3.50;1.75;;;10.70;99.90;;;;;;5039631;28;20017;-78
2022/10/05 07:16:39;;;;;;;2.40;1.30;;;10.90;99.90;;;;;;5058398;28;20052;-77
2022/10/05 07:19:23;;;;;;;4.70;1.30;;;11.10;99.90;;;;;;5040609;28;20036;-79
2022/10/05 07:22:15;;;;;;;3.40;1.38;;;11.40;99.60;;;;;;5063496;28;20027;-79
2022/10/05 07:24:59;;;;;;;2.30;1.10;;;11.50;99.10;;;;;;5061727;28;20025;-79
2022/10/05 07:27:31;;;;;;;1.85;1.30;;;11.80;98.50;;;;;;5046460;28;20287;-79
2022/10/05 07:30:09;;;;;;;3.03;0.73;;;12.00;98.00;;;;;;5041988;28;20029;-79
2022/10/05 07:33:10;;;;;;;2.15;1.00;;;12.20;97.40;;;;;;5037471;28;20086;-79
2022/10/05 07:39:08;;;;;;;1.73;1.25;;;12.70;95.70;;;;;;5043269;28;20048;-79
2022/10/05 07:41:46;;;;;;;1.27;1.00;;;12.90;95.00;;;;;;5041934;28;20042;-78
2022/10/05 07:44:18;;;;;;;2.30;1.00;;;13.10;94.40;;;;;;5024938;28;20053;-79
2022/10/05 07:46:52;;;;;;;2.83;1.33;;;13.40;93.40;;;;;;5051088;28;20021;-80
2022/10/05 07:49:43;;;;;;;1.42;1.15;;;13.70;92.20;;;;;;5066498;28;20055;-78
2022/10/05 07:52:27;;;;;;;1.40;1.30;;;13.90;91.50;;;;;;5060106;28;20020;-79
2022/10/05 07:54:53;;;;;;;1.00;0.90;;;14.20;90.80;;;;;;5057396;28;20476;-79
2022/10/05 07:57:38;;;;;;;0.75;0.60;;;14.50;90.10;;;;;;5051399;28;20044;-79
2022/10/05 08:00:17;;;;;;;4.20;0.90;;;14.70;88.70;;;;;;5037745;28;20478;-80
2022/10/05 08:02:57;;;;;;;2.92;0.93;;;15.00;86.90;;;;;;5021816;28;20133;-79
2022/10/05 08:05:29;;;;;;;0.60;0.60;;;15.20;84.70;;;;;;5040862;28;20029;-79
2022/10/05 08:08:05;;;;;;;1.75;0.52;;;15.40;83.10;;;;;;5022700;28;20064;-80
2022/10/05 08:10:54;;;;;;;0.50;0.50;;;15.70;81.70;;;;;;5045587;28;20095;-79
2022/10/05 08:13:23;;;;;;;0.55;0.55;;;15.90;80.10;;;;;;5040997;28;20021;-79
2022/10/05 08:15:57;;;;;;;1.52;0.65;;;16.00;78.10;;;;;;5047309;28;20060;-78
2022/10/05 08:19:04;;;;;;;0.70;0.70;;;16.20;76.70;;;;;;5044369;28;20041;-79
2022/10/05 08:21:40;;;;;;;0.40;0.40;;;16.40;75.10;;;;;;5041489;28;20044;-79
2022/10/05 08:24:14;;;;;;;0.82;0.73;;;16.60;73.70;;;;;;5046314;28;20025;-79
2022/10/05 08:26:48;;;;;;;0.70;0.70;;;16.80;72.40;;;;;;5042722;28;20063;-78
2022/10/05 08:29:28;;;;;;;0.50;0.50;;;17.00;71.10;;;;;;5053784;28;20024;-78
2022/10/05 08:32:04;;;;;;;0.45;0.45;;;17.20;70.70;;;;;;5063684;28;20025;-79
2022/10/05 08:34:44;;;;;;;1.25;0.40;;;17.50;69.70;;;;;;5050966;28;20088;-79
2022/10/05 08:37:48;;;;;;;0.50;0.50;;;17.70;69.20;;;;;;5085669;22;20056;-86
2022/10/05 08:47:19;;;;;;;1.55;0.68;;;18.60;65.70;;;;;;5059031;28;20115;-85
2022/10/05 08:50:30;;;;;;;1.55;0.80;;;18.80;65.40;;;;;;5046395;28;20067;-86
2022/10/05 08:56:46;;;;;;;0.93;0.80;;;19.10;64.20;;;;;;5041769;28;20045;-84
2022/10/05 08:59:56;;;;;;;1.83;0.70;;;19.40;63.90;;;;;;5054250;28;20018;-86
2022/10/05 09:02:40;;;;;;;1.30;0.65;;;19.70;62.50;;;;;;5033695;28;20033;-84
2022/10/05 09:05:43;;;;;;;1.10;1.00;;;20.00;61.80;;;;;;5047708;28;20060;-85
2022/10/05 09:49:35;;;;;;;0.73;0.73;;;21.10;59.30;;;;;;5046714;28;20271;-86
2022/10/05 09:52:44;;;;;;;3.57;1.00;;;21.10;59.00;;;;;;5054541;28;20393;-87
2022/10/05 09:59:39;;;;;;;2.38;1.30;;;21.20;59.90;;;;;;5059245;28;20516;-86
2022/10/05 10:13:04;;;;;;;1.77;1.10;;;21.50;59.10;;;;;;5061157;28;20100;-85
2022/10/05 10:45:53;;;;;;;1.85;0.80;;;22.70;55.80;;;;;;5018279;28;20094;-86
2022/10/05 10:48:28;;;;;;;2.63;1.50;;;22.70;55.30;;;;;;5017166;28;20022;-86
2022/10/05 10:51:06;;;;;;;2.45;1.50;;;22.60;55.20;;;;;;4999601;28;20026;-86
2022/10/05 10:53:47;;;;;;;1.10;1.00;;;22.60;55.20;;;;;;4998667;28;20079;-86
2022/10/05 10:59:26;;;;;;;1.20;0.98;;;22.70;55.50;;;;;;5110249;23;20056;-85
2022/10/05 11:06:04;;;;;;;0.98;0.98;;;22.90;54.70;;;;;;5025064;28;20033;-87
2022/10/05 11:12:03;;;;;;;1.02;1.00;;;22.90;55.30;;;;;;5021956;28;20479;-85
2022/10/05 11:18:19;;;;;;;;;;;23.00;55.10;;;;;;5022777;28;20037;-84
2022/10/05 11:21:24;;;;;;;1.55;1.08;;;23.00;54.50;;;;;;5017203;28;19964;-85
2022/10/05 11:28:19;;;;;;;3.03;1.10;;;23.30;54.00;;;;;;4962885;29;20050;-85
2022/10/05 11:35:14;;;;;;;1.70;1.05;;;23.30;53.10;;;;;;4991030;28;20044;-86
2022/10/05 11:41:31;;;;;;;2.08;1.23;;;23.40;53.40;;;;;;4982269;28;20415;-85
2022/10/05 11:44:28;;;;;;;3.58;1.08;;;23.40;52.90;;;;;;4977953;28;20093;-85
2022/10/05 11:47:36;;;;;;;1.10;1.00;;;23.40;53.10;;;;;;4999014;28;20061;-86
2022/10/05 11:50:42;;;;;;;2.33;1.20;;;23.40;53.50;;;;;;4978670;28;20029;-85
2022/10/05 11:53:22;;;;;;;1.27;1.08;;;23.30;53.00;;;;;;4991845;28;20122;-85
2022/10/05 11:56:10;;;;;;;2.42;1.20;;;23.10;53.80;;;;;;5027479;28;20554;-86
2022/10/05 11:59:17;;;;;;;1.95;1.08;;;23.10;53.70;;;;;;5010061;28;20101;-86
2022/10/05 12:02:41;;;;;;;2.72;1.08;;;23.10;54.30;;;;;;5007884;28;20091;-86
2022/10/05 12:05:51;;;;;;;3.08;1.45;;;23.20;53.60;;;;;;5008255;28;20031;-85
2022/10/05 12:08:28;;;;;;;3.00;1.40;;;23.20;54.20;;;;;;4990780;28;20061;-85
2022/10/05 12:11:42;;;;;;;1.15;1.05;;;23.30;54.20;;;;;;5007764;28;20513;-85
2022/10/05 12:15:06;;;;;;;0.88;0.85;;;23.40;54.00;;;;;;4873437;29;20044;-85
2022/10/05 12:18:31;;;;;;;1.42;1.00;;;23.40;54.20;;;;;;4904531;29;20036;-85
2022/10/05 12:21:26;;;;;;;1.23;0.90;;;23.20;54.60;;;;;;4895021;29;20029;-85
2022/10/05 12:24:47;;;;;;;0.90;0.90;;;23.10;54.30;;;;;;4955037;29;20042;-85
2022/10/05 12:27:21;;;;;;;1.30;0.90;;;23.10;55.10;;;;;;4888429;29;20103;-85
2022/10/05 12:30:02;;;;;;;2.23;0.90;;;23.10;55.30;;;;;;4989405;28;20030;-85
2022/10/05 12:32:50;;;;;;;2.22;1.10;;;23.10;55.00;;;;;;5008380;28;20025;-84
2022/10/05 12:35:45;;;;;;;2.50;1.15;;;23.10;54.90;;;;;;4979940;28;20038;-86
2022/10/05 12:38:36;;;;;;;1.10;1.00;;;23.30;55.00;;;;;;5009037;28;20037;-84
2022/10/05 12:41:49;;;;;;;2.40;1.60;;;23.30;54.60;;;;;;5012890;28;20076;-85
2022/10/05 12:48:04;;;;;;;1.00;1.00;;;23.30;52.90;;;;;;5021014;28;20053;-85
2022/10/05 12:50:50;;;;;;;3.05;1.00;;;23.40;52.80;;;;;;5009341;28;20100;-86
2022/10/05 12:53:57;;;;;;;1.50;1.20;;;23.50;52.50;;;;;;5025933;28;20022;-85
2022/10/05 12:56:38;;;;;;;1.30;0.90;;;23.60;52.50;;;;;;5003493;28;20100;-86
2022/10/05 12:59:29;;;;;;;1.40;1.20;;;23.60;52.80;;;;;;5006953;28;20029;-86
2022/10/05 13:02:00;;;;;;;1.47;1.30;;;23.70;52.90;;;;;;5023609;28;20053;-85
2022/10/05 13:04:55;;;;;;;1.23;0.73;;;23.80;52.80;;;;;;5006658;28;20042;-85
2022/10/05 13:07:39;;;;;;;0.65;0.65;;;23.80;52.30;;;;;;5002769;28;20042;-85
2022/10/05 13:10:11;;;;;;;0.90;0.90;;;23.80;52.70;;;;;;4986795;28;20026;-85
2022/10/05 13:13:13;;;;;;;2.00;0.90;;;23.90;52.30;;;;;;4989486;28;20094;-86
2022/10/05 13:16:14;;;;;;;1.45;0.82;;;23.90;52.20;;;;;;4996137;28;20022;-86
2022/10/05 13:19:16;;;;;;;1.52;1.30;;;24.00;51.60;;;;;;5008299;28;20097;-86
2022/10/05 13:21:45;;;;;;;1.65;1.13;;;23.90;51.10;;;;;;5025089;28;20076;-84
2022/10/05 13:24:22;;;;;;;1.30;1.20;;;23.80;51.40;;;;;;5025573;28;20076;-84
2022/10/05 13:27:02;;;;;;;1.35;1.25;;;23.80;52.40;;;;;;5009837;28;20026;-85
2022/10/05 13:30:02;;;;;;;0.93;0.90;;;23.80;51.90;;;;;;4987501;28;20026;-85
2022/10/05 13:32:50;;;;;;;1.13;0.75;;;23.90;52.40;;;;;;4990174;28;20038;-86
2022/10/05 13:35:19;;;;;;;1.33;0.70;;;24.00;51.80;;;;;;4987431;28;20040;-85
2022/10/05 13:38:37;;;;;;;;;;;;;;;;;;;;;
2022/10/05 13:41:25;;;;;;;0.98;0.90;;;23.90;51.10;;;;;;5004218;28;20150;-85
2022/10/05 13:43:54;;;;;;;1.08;0.80;;;23.90;50.90;;;;;;4987174;28;20031;-85
2022/10/05 13:46:36;;;;;;;0.80;0.80;;;23.90;50.40;;;;;;4992601;28;20029;-85
2022/10/05 13:49:22;;;;;;;0.80;0.80;;;24.00;50.50;;;;;;5024546;28;20018;-85
2022/10/05 13:52:08;;;;;;;2.17;1.90;;;24.10;50.60;;;;;;5024233;28;20032;-85
2022/10/05 13:55:11;;;;;;;1.80;1.63;;;24.10;50.30;;;;;;5006068;28;20060;-84
2022/10/05 13:58:01;;;;;;;1.63;1.27;;;24.10;50.50;;;;;;5008945;28;20039;-86
2022/10/05 14:00:27;;;;;;;1.52;1.15;;;24.00;50.50;;;;;;5004918;28;20058;-85
2022/10/05 14:03:39;;;;;;;3.97;1.10;;;24.00;50.80;;;;;;4988964;28;20023;-85
2022/10/05 14:06:29;;;;;;;3.75;2.03;;;23.90;50.30;;;;;;4988643;28;20077;-85
2022/10/05 14:09:15;;;;;;;3.28;1.10;;;23.70;50.90;;;;;;5022466;28;20386;-85
2022/10/05 14:12:03;;;;;;;0.88;0.80;;;23.60;51.60;;;;;;5005426;28;20050;-85
2022/10/05 14:14:40;;;;;;;1.05;0.98;;;23.50;51.60;;;;;;5028051;28;20022;-85
2022/10/05 14:17:14;;;;;;;0.93;0.85;;;23.50;51.80;;;;;;5032759;28;20026;-85
2022/10/05 14:19:40;;;;;;;2.45;1.10;;;23.40;52.00;;;;;;5034005;28;20078;-85
2022/10/05 14:22:42;;;;;;;0.75;0.75;;;23.40;51.90;;;;;;5017044;28;20057;-86
2022/10/05 14:25:49;;;;;;;1.35;1.17;;;23.30;52.10;;;;;;4969803;28;20387;-84
2022/10/05 14:32:45;;;;;;;;;;;;;;;;;;;;;
2022/10/05 14:38:56;;;;;;;1.30;1.20;;;23.00;53.50;;;;;;5049178;23;20036;-80
2022/10/05 14:41:27;;;;;;;2.85;2.22;;;22.90;54.00;;;;;;5000417;28;20041;-80
2022/10/05 14:44:08;;;;;;;2.25;1.95;;;22.80;54.30;;;;;;4995729;28;20027;-81
2022/10/05 14:46:35;;;;;;;4.75;1.73;;;22.80;54.20;;;;;;5004593;28;20035;-83
2022/10/05 14:49:20;;;;;;;2.00;1.13;;;22.80;54.20;;;;;;5016253;28;20033;-81
2022/10/05 14:51:50;;;;;;;1.45;1.20;;;22.70;54.40;;;;;;5031090;28;20032;-80
2022/10/05 14:54:54;;;;;;;2.20;1.20;;;22.60;54.40;;;;;;5036392;28;20014;-80
2022/10/05 14:57:38;;;;;;;1.42;0.90;;;22.60;54.20;;;;;;5017639;28;20018;-79
2022/10/05 15:00:17;;;;;;;1.05;0.98;;;22.40;53.40;;;;;;5003997;28;20110;-82
2022/10/05 15:02:59;;;;;;;1.00;0.95;;;22.30;53.60;;;;;;4992887;28;20040;-82
2022/10/05 15:05:32;;;;;;;2.97;1.83;;;22.20;53.80;;;;;;5008351;28;20045;-82
2022/10/05 15:08:22;;;;;;;2.75;1.70;;;22.10;54.00;;;;;;4987286;28;20029;-83
2022/10/05 15:10:55;;;;;;;1.48;1.38;;;22.10;54.40;;;;;;5023469;28;20030;-80
2022/10/05 15:13:24;;;;;;;0.80;0.80;;;21.90;54.40;;;;;;5025133;28;20091;-81
2022/10/05 15:15:56;;;;;;;1.05;0.90;;;21.90;54.50;;;;;;5024653;28;20105;-82
2022/10/05 15:18:28;;;;;;;0.73;0.70;;;21.80;54.70;;;;;;5010921;28;20030;-81
2022/10/05 15:21:32;;;;;;;1.13;0.80;;;21.70;54.90;;;;;;5015142;28;20038;-80
2022/10/05 15:24:12;;;;;;;0.93;0.93;;;21.70;55.20;;;;;;5014509;28;20057;-82
2022/10/05 15:26:51;;;;;;;2.30;1.10;;;21.60;55.20;;;;;;5000246;28;20474;-82
2022/10/05 15:29:29;;;;;;;2.50;1.15;;;21.50;55.40;;;;;;5025034;28;20040;-81
2022/10/05 15:32:22;;;;;;;1.60;1.10;;;21.40;55.40;;;;;;5033725;28;20033;-80
2022/10/05 15:35:27;;;;;;;0.82;0.82;;;21.40;55.40;;;;;;5017392;28;20049;-80
2022/10/05 15:37:57;;;;;;;0.75;0.73;;;21.30;55.40;;;;;;5027028;28;20089;-82
2022/10/05 15:40:40;;;;;;;1.38;1.23;;;21.30;55.60;;;;;;5025588;28;20026;-81
2022/10/05 15:43:15;;;;;;;2.42;1.33;;;21.20;55.90;;;;;;5015631;28;20026;-80
2022/10/05 15:46:32;;;;;;;1.20;1.10;;;21.10;56.20;;;;;;5036201;28;20026;-82
2022/10/05 15:49:13;;;;;;;1.15;1.00;;;21.00;56.70;;;;;;5009143;28;20103;-81
2022/10/05 15:52:00;;;;;;;1.48;1.20;;;20.90;57.30;;;;;;4993714;28;20089;-83
2022/10/05 15:54:48;;;;;;;1.98;1.73;;;20.80;57.90;;;;;;4988133;28;20026;-81
2022/10/05 15:57:39;;;;;;;2.53;1.70;;;20.80;58.60;;;;;;4987896;28;20582;-81
2022/10/05 16:00:16;;;;;;;2.28;1.25;;;20.70;59.20;;;;;;5005205;28;20027;-83
2022/10/05 16:03:14;;;;;;;1.60;1.25;;;20.50;59.80;;;;;;5005735;28;20030;-83
2022/10/05 16:08:50;;;;;;;1.58;1.20;;;20.30;61.10;;;;;;5003941;28;20056;-81
2022/10/05 16:11:46;;;;;;;2.55;1.30;;;20.20;61.90;;;;;;5006069;28;20026;-81
2022/10/05 16:14:42;;;;;;;6.50;1.63;;;20.00;62.40;;;;;;5006882;28;20034;-82
2022/10/05 16:17:27;;;;;;;2.83;1.85;;;19.90;62.70;;;;;;5004141;28;20053;-81
2022/10/05 16:20:01;;;;;;;3.50;3.00;;;19.80;62.90;;;;;;4987184;28;20027;-81
2022/10/05 16:22:51;;;;;;;3.35;3.05;;;19.60;63.00;;;;;;5017578;28;20030;-81
2022/10/05 16:25:22;;;;;;;2.47;2.28;;;19.50;63.00;;;;;;5027513;28;20113;-80
2022/10/05 16:28:22;;;;;;;2.17;1.90;;;19.40;63.10;;;;;;5011070;28;20053;-81
2022/10/05 16:30:57;;;;;;;2.60;2.33;;;19.20;63.30;;;;;;5004267;28;20056;-81
2022/10/05 16:34:15;;;;;;;3.15;2.33;;;19.10;63.20;;;;;;4990191;28;20088;-82
2022/10/05 16:37:15;;;;;;;2.30;2.10;;;19.00;63.10;;;;;;4994356;28;20039;-82
2022/10/05 16:39:59;;;;;;;2.50;1.67;;;18.80;63.10;;;;;;4990467;28;20026;-82
2022/10/05 16:42:54;;;;;;;3.80;2.15;;;18.70;63.60;;;;;;5007529;28;20057;-82
2022/10/05 16:45:20;;;;;;;4.15;3.00;;;18.60;64.30;;;;;;4994665;28;20066;-81
2022/10/05 16:48:16;;;;;;;4.50;3.15;;;18.40;65.00;;;;;;4989629;28;20069;-83